Decoded Metar for YPPD (PORT HEDLAND in AUSTRALIA) (IATA:PHE) | Meteo·Mobile Aviation Weather
aviador You're here:

YPPD Decoded Metar

PORT HEDLAND in AUSTRALIA
Report Time2018-09-19 20:00:00
UTC Time2018-09-19 20:43:20
Flight Rules vfr VFR
Wind140° at 05 kt
W.Decomp.*RWY 14: 5.0 kt HW 0.1 kt LCW
RWY 18: 3.8 kt HW 3.3 kt LCW
W.Rank140° ranks 15
Current wind is below 140° avg. (8.7)
Visibility9999 m
Phenomena:N/A
Clouds:N/A
Expected CloudBase > 7,200 ft AGL from Temp-Dew spread
CeilingNone
Temp22°C (ISA +7)
Dew Point04°C (31% RH)
AAT18.9°C
QNH1014 hPa
Density Alt922 ft
Elevation20 ft
Report Wrong Elevation
Raw Report
METAR YPPD 192000Z AUTO 14005KT 9999 // NCD 22/04 Q1014=

Extra information for YPPD:More info

Metar Taf Metar & Taf Last 4 Metars F.Rules Stats Wind Profile Meteogram Temp Stats Airport Information Weather charts Add Link Nearby VenuesMetar ALERT Operation Metar Decoded Social comments